createdAt,value
2023-04-16T00:00:37.796Z,5.45
2023-04-16T00:03:39.760Z,5.22
2023-04-16T00:06:41.876Z,5.03
2023-04-16T00:09:43.524Z,5.32
2023-04-16T00:12:45.293Z,4.85
2023-04-16T00:15:46.945Z,4.50
2023-04-16T00:18:48.500Z,5.28
2023-04-16T00:21:50.369Z,5.20
2023-04-16T00:24:51.957Z,5.10
2023-04-16T00:27:53.562Z,4.97
2023-04-16T00:30:55.750Z,4.85
2023-04-16T00:33:57.759Z,5.18
2023-04-16T00:36:59.872Z,4.53
2023-04-16T00:40:01.786Z,5.28
2023-04-16T00:43:03.457Z,4.22
2023-04-16T00:46:07.121Z,4.68
2023-04-16T00:49:09.965Z,4.38
2023-04-16T00:52:12.095Z,4.38
2023-04-16T00:55:15.188Z,4.85
2023-04-16T00:58:17.234Z,5.07
2023-04-16T01:01:18.860Z,4.80
2023-04-16T01:04:21.127Z,5.30
2023-04-16T01:07:22.832Z,4.43
2023-04-16T01:10:24.407Z,5.07
2023-04-16T01:13:26.040Z,4.80
2023-04-16T01:16:27.785Z,4.45
2023-04-16T01:19:36.232Z,5.05
2023-04-16T01:22:37.926Z,5.32
2023-04-16T01:25:39.679Z,5.45
2023-04-16T01:28:41.420Z,6.00
2023-04-16T01:31:43.098Z,5.95
2023-04-16T01:34:53.846Z,6.35
2023-04-16T01:37:56.014Z,5.90
2023-04-16T01:40:58.091Z,6.30
2023-04-16T01:43:59.696Z,7.13
2023-04-16T01:47:01.438Z,6.65
2023-04-16T01:50:05.472Z,7.32
2023-04-16T01:53:07.336Z,6.72
2023-04-16T01:56:08.984Z,7.70
2023-04-16T01:59:10.966Z,7.13
2023-04-16T02:02:16.331Z,7.15
2023-04-16T02:05:18.016Z,7.40
2023-04-16T02:08:21.549Z,8.02
2023-04-16T02:11:23.173Z,6.90
2023-04-16T02:14:25.986Z,7.07
2023-04-16T02:17:27.848Z,7.80
2023-04-16T02:20:42.567Z,7.63
2023-04-16T02:23:47.529Z,8.00
2023-04-16T02:26:49.173Z,8.77
2023-04-16T02:29:52.918Z,7.72
2023-04-16T02:32:54.631Z,8.50
2023-04-16T02:35:56.932Z,7.85
2023-04-16T02:38:59.327Z,8.25
2023-04-16T02:42:02.868Z,7.32
2023-04-16T02:45:04.919Z,7.18
2023-04-16T02:48:08.706Z,8.00
2023-04-16T02:51:10.304Z,8.15
2023-04-16T02:54:11.951Z,7.78
2023-04-16T02:57:13.610Z,7.80
2023-04-16T03:00:15.373Z,8.05
2023-04-16T03:03:17.510Z,8.50
2023-04-16T03:06:19.157Z,7.07
2023-04-16T03:09:21.090Z,7.75
2023-04-16T03:12:22.697Z,5.95
2023-04-16T03:15:25.235Z,5.93
2023-04-16T03:18:26.986Z,6.38
2023-04-16T03:21:28.600Z,6.25
2023-04-16T03:24:30.198Z,5.95
2023-04-16T03:27:32.618Z,5.47
2023-04-16T03:30:34.195Z,6.17
2023-04-16T03:33:36.106Z,6.55
2023-04-16T03:36:38.714Z,6.88
2023-04-16T03:39:40.504Z,6.47
2023-04-16T03:42:45.534Z,7.00
2023-04-16T03:45:47.533Z,7.18
2023-04-16T03:48:49.211Z,7.80
2023-04-16T03:51:51.205Z,8.65
2023-04-16T03:54:52.845Z,8.45
2023-04-16T03:58:05.625Z,8.57
2023-04-16T04:01:07.957Z,7.97
2023-04-16T04:04:11.049Z,8.50
2023-04-16T04:07:12.779Z,8.75
2023-04-16T04:10:14.807Z,8.35
2023-04-16T04:13:17.216Z,8.30
2023-04-16T04:16:19.214Z,7.97
2023-04-16T04:19:20.908Z,8.27
2023-04-16T04:22:23.358Z,8.20
2023-04-16T04:25:27.315Z,8.20
2023-04-16T04:28:32.760Z,8.63
2023-04-16T04:31:34.519Z,8.18
2023-04-16T04:34:37.190Z,7.72
2023-04-16T04:37:40.520Z,8.18
2023-04-16T04:40:48.914Z,7.72
2023-04-16T04:43:52.318Z,8.85
2023-04-16T04:46:53.943Z,9.38
2023-04-16T04:49:55.597Z,8.93
2023-04-16T04:52:57.225Z,8.52
2023-04-16T04:56:09.169Z,8.23
2023-04-16T04:59:13.964Z,8.48
2023-04-16T05:02:16.236Z,8.80
2023-04-16T05:05:17.971Z,9.27
2023-04-16T05:08:19.556Z,8.75
2023-04-16T05:11:21.364Z,8.60
2023-04-16T05:14:23.107Z,9.77
2023-04-16T05:17:24.731Z,9.15
2023-04-16T05:20:26.311Z,9.50
2023-04-16T05:23:28.065Z,9.05
2023-04-16T05:26:29.633Z,9.18
2023-04-16T05:29:31.273Z,9.43
2023-04-16T05:32:32.897Z,9.18
2023-04-16T05:35:35.106Z,9.63
2023-04-16T05:38:36.699Z,8.98
2023-04-16T05:41:38.274Z,9.15
2023-04-16T05:44:40.782Z,8.82
2023-04-16T05:47:42.391Z,8.93
2023-04-16T05:50:44.134Z,8.10
2023-04-16T05:53:45.987Z,9.23
2023-04-16T05:56:47.544Z,8.43
2023-04-16T05:59:49.288Z,10.13
2023-04-16T06:02:51.377Z,8.68
2023-04-16T06:05:53.522Z,8.70
2023-04-16T06:08:55.170Z,8.20
2023-04-16T06:11:57.984Z,8.30
2023-04-16T06:15:00.258Z,8.23
2023-04-16T06:18:01.938Z,7.90
2023-04-16T06:21:04.618Z,9.07
2023-04-16T06:24:06.443Z,8.93
2023-04-16T06:27:08.090Z,9.13
2023-04-16T06:30:14.263Z,8.88
2023-04-16T06:33:16.254Z,9.07
2023-04-16T06:36:17.897Z,8.13
2023-04-16T06:39:21.752Z,9.35
2023-04-16T06:42:23.496Z,9.50
2023-04-16T06:45:25.081Z,9.57
2023-04-16T06:48:27.386Z,9.75
2023-04-16T06:51:29.053Z,10.18
2023-04-16T06:54:31.010Z,10.63
2023-04-16T06:57:32.603Z,10.20
2023-04-16T07:00:34.241Z,9.70
2023-04-16T07:03:36.707Z,10.75
2023-04-16T07:06:38.448Z,10.70
2023-04-16T07:09:40.057Z,9.82
2023-04-16T07:12:41.647Z,9.68
2023-04-16T07:15:43.310Z,10.70
2023-04-16T07:18:45.010Z,10.73
2023-04-16T07:21:46.618Z,9.88
2023-04-16T07:24:48.295Z,9.70
2023-04-16T07:27:49.869Z,9.88
2023-04-16T07:30:51.562Z,10.45
2023-04-16T07:33:53.309Z,9.50
2023-04-16T07:36:54.860Z,9.27
2023-04-16T07:39:57.636Z,9.75
2023-04-16T07:42:59.365Z,10.05
2023-04-16T07:46:01.291Z,10.07
2023-04-16T07:49:02.879Z,10.50
2023-04-16T07:52:04.474Z,9.68
2023-04-16T07:55:06.426Z,10.00
2023-04-16T07:58:09.508Z,9.75
2023-04-16T08:01:11.454Z,9.13
2023-04-16T08:04:14.273Z,9.25
2023-04-16T08:07:16.101Z,9.00
2023-04-16T08:10:17.708Z,8.95
2023-04-16T08:13:19.518Z,8.35
2023-04-16T08:16:21.229Z,8.70
2023-04-16T08:19:22.875Z,8.68
2023-04-16T08:22:24.676Z,9.50
2023-04-16T08:25:26.318Z,8.07
2023-04-16T08:28:28.034Z,9.15
2023-04-16T08:31:32.979Z,8.73
2023-04-16T08:37:40.698Z,7.60
2023-04-16T08:40:46.726Z,8.30
2023-04-16T08:43:51.664Z,8.25
2023-04-16T08:46:58.195Z,8.85
2023-04-16T08:50:00.999Z,8.70
2023-04-16T08:53:06.887Z,8.43
2023-04-16T08:56:11.397Z,8.18
2023-04-16T08:59:13.075Z,7.85
2023-04-16T09:02:15.076Z,9.30
2023-04-16T09:05:17.946Z,8.20
2023-04-16T09:08:20.296Z,8.13
2023-04-16T09:11:22.300Z,7.43
2023-04-16T09:14:23.982Z,8.55
2023-04-16T09:17:25.615Z,7.93
2023-04-16T09:20:27.261Z,8.85
2023-04-16T09:23:29.654Z,8.38
2023-04-16T09:26:31.724Z,7.93
2023-04-16T09:29:38.380Z,8.63
2023-04-16T09:32:40.177Z,8.05
2023-04-16T09:35:50.129Z,7.93
2023-04-16T09:38:52.737Z,7.88
2023-04-16T09:41:55.299Z,7.60
2023-04-16T09:44:59.479Z,8.13
2023-04-16T09:48:05.969Z,7.72
2023-04-16T09:51:07.790Z,8.23
2023-04-16T09:54:09.752Z,8.60
2023-04-16T09:57:11.460Z,8.30
2023-04-16T10:00:13.786Z,8.80
2023-04-16T10:03:15.647Z,8.50
2023-04-16T10:06:19.694Z,7.88
2023-04-16T10:09:22.773Z,8.60
2023-04-16T10:12:24.420Z,8.10
2023-04-16T10:15:26.671Z,8.77
2023-04-16T10:18:29.135Z,7.67
2023-04-16T10:21:33.865Z,8.95
2023-04-16T10:24:35.998Z,8.45
2023-04-16T10:27:38.481Z,8.40
2023-04-16T10:30:40.653Z,8.90
2023-04-16T10:33:44.174Z,9.07
2023-04-16T10:36:50.151Z,9.35
2023-04-16T10:39:52.515Z,9.38
2023-04-16T10:42:59.329Z,9.17
2023-04-16T10:46:23.154Z,9.30
2023-04-16T10:49:26.380Z,10.65
2023-04-16T10:55:31.118Z,9.33
2023-04-16T10:58:36.566Z,9.38
2023-04-16T11:01:46.202Z,9.80
2023-04-16T11:04:49.328Z,9.63
2023-04-16T11:07:51.343Z,8.57
2023-04-16T11:10:53.921Z,9.00
2023-04-16T11:13:56.903Z,9.57
2023-04-16T11:16:58.606Z,9.02
2023-04-16T11:20:00.390Z,8.18
2023-04-16T11:23:02.094Z,8.98
2023-04-16T11:26:03.694Z,9.75
2023-04-16T11:29:14.634Z,8.85
2023-04-16T11:32:22.784Z,9.02
2023-04-16T11:35:24.597Z,8.73
2023-04-16T11:38:37.273Z,8.82
2023-04-16T11:41:49.759Z,8.30
2023-04-16T11:44:56.218Z,8.97
2023-04-16T11:47:57.997Z,8.75
2023-04-16T11:50:59.733Z,8.85
2023-04-16T11:54:02.177Z,8.43
2023-04-16T11:57:06.602Z,9.83
2023-04-16T12:00:13.873Z,14.77
2023-04-16T12:03:15.938Z,16.85
2023-04-16T12:06:17.825Z,8.40
2023-04-16T12:09:27.065Z,7.25
2023-04-16T12:12:31.651Z,8.32
2023-04-16T12:15:44.539Z,7.13
2023-04-16T12:19:00.019Z,7.00
2023-04-16T12:22:01.641Z,7.18
2023-04-16T12:25:11.290Z,7.38
2023-04-16T12:28:13.818Z,7.50
2023-04-16T12:31:15.853Z,7.53
2023-04-16T12:34:18.852Z,7.25
2023-04-16T12:37:20.430Z,7.63
2023-04-16T12:40:22.048Z,7.60
2023-04-16T12:43:23.761Z,8.00
2023-04-16T12:46:25.781Z,7.80
2023-04-16T12:49:27.427Z,7.55
2023-04-16T12:52:29.168Z,8.50
2023-04-16T12:55:30.914Z,8.73
2023-04-16T12:58:32.484Z,8.90
2023-04-16T13:01:36.743Z,8.85
2023-04-16T13:04:38.631Z,8.15
2023-04-16T13:07:41.364Z,7.15
2023-04-16T13:10:43.013Z,7.93
2023-04-16T13:13:44.952Z,7.63
2023-04-16T13:16:46.669Z,6.97
2023-04-16T13:19:48.203Z,7.93
2023-04-16T13:22:49.899Z,6.80
2023-04-16T13:25:51.542Z,7.80
2023-04-16T13:28:53.108Z,8.15
2023-04-16T13:31:54.863Z,7.55
2023-04-16T13:34:56.460Z,7.70
2023-04-16T13:37:58.015Z,8.20
2023-04-16T13:40:59.546Z,9.20
2023-04-16T13:44:01.232Z,7.78
2023-04-16T13:47:03.026Z,8.10
2023-04-16T13:50:05.008Z,9.77
2023-04-16T13:53:07.120Z,10.25
2023-04-16T13:56:08.778Z,9.13
2023-04-16T13:59:10.630Z,8.73
2023-04-16T14:02:12.956Z,9.10
2023-04-16T14:05:14.727Z,9.48
2023-04-16T14:08:17.000Z,9.75
2023-04-16T14:11:18.629Z,9.60
2023-04-16T14:14:21.328Z,9.95
2023-04-16T14:17:22.983Z,9.13
2023-04-16T14:20:24.596Z,9.52
2023-04-16T14:23:26.623Z,10.00
2023-04-16T14:26:28.366Z,10.88
2023-04-16T14:29:30.972Z,9.07
2023-04-16T14:32:32.582Z,9.77
2023-04-16T14:35:34.615Z,8.75
2023-04-16T14:38:36.277Z,8.73
2023-04-16T14:41:37.850Z,9.50
2023-04-16T14:44:39.453Z,9.15
2023-04-16T14:47:45.882Z,10.13
2023-04-16T14:50:47.805Z,9.75
2023-04-16T14:53:49.385Z,9.88
2023-04-16T14:56:50.994Z,9.10
2023-04-16T14:59:52.612Z,10.07
2023-04-16T15:02:57.791Z,8.60
2023-04-16T15:05:59.636Z,10.60
2023-04-16T15:09:01.564Z,12.20
2023-04-16T15:12:04.200Z,11.07
2023-04-16T15:15:09.099Z,10.70
2023-04-16T15:18:10.886Z,10.63
2023-04-16T15:21:12.876Z,10.70
2023-04-16T15:24:14.530Z,11.43
2023-04-16T15:27:17.704Z,8.73
2023-04-16T15:30:19.698Z,8.77
2023-04-16T15:33:21.717Z,9.00
2023-04-16T15:36:23.573Z,8.55
2023-04-16T15:39:25.219Z,9.25
2023-04-16T15:42:27.324Z,9.15
2023-04-16T15:45:30.215Z,15.95
2023-04-16T15:48:34.592Z,13.45
2023-04-16T15:51:36.306Z,10.52
2023-04-16T15:54:37.962Z,11.57
2023-04-16T15:57:39.620Z,11.95
2023-04-16T16:00:41.655Z,10.45
2023-04-16T16:03:43.652Z,11.77
2023-04-16T16:06:45.480Z,11.35
2023-04-16T16:09:48.017Z,13.18
2023-04-16T16:12:49.617Z,10.25
2023-04-16T16:15:51.550Z,10.98
2023-04-16T16:18:53.176Z,10.02
2023-04-16T16:21:54.719Z,9.85
2023-04-16T16:24:57.605Z,9.45
2023-04-16T16:31:02.035Z,9.40
2023-04-16T16:34:03.694Z,9.13
2023-04-16T16:37:06.339Z,9.45
2023-04-16T16:40:08.748Z,9.82
2023-04-16T16:43:10.571Z,9.60
2023-04-16T16:46:12.178Z,9.63
2023-04-16T16:49:14.472Z,9.82
2023-04-16T16:52:16.080Z,9.68
2023-04-16T16:55:18.905Z,11.15
2023-04-16T16:58:20.833Z,9.93
2023-04-16T17:01:22.516Z,11.10
2023-04-16T17:04:24.494Z,9.82
2023-04-16T17:07:26.312Z,10.05
2023-04-16T17:10:27.918Z,10.30
2023-04-16T17:13:30.139Z,9.55
2023-04-16T17:16:31.802Z,8.63
2023-04-16T17:19:33.458Z,8.60
2023-04-16T17:22:35.218Z,8.55
2023-04-16T17:25:36.899Z,8.18
2023-04-16T17:28:38.532Z,8.65
2023-04-16T17:31:40.198Z,8.65
2023-04-16T17:34:41.938Z,14.55
2023-04-16T17:37:43.615Z,8.18
2023-04-16T17:40:45.308Z,9.45
2023-04-16T17:43:49.569Z,9.23
2023-04-16T17:46:51.395Z,7.78
2023-04-16T17:49:54.529Z,8.07
2023-04-16T17:52:58.089Z,7.45
2023-04-16T17:55:59.649Z,7.22
2023-04-16T17:59:01.457Z,7.95
2023-04-16T18:02:03.274Z,7.47
2023-04-16T18:05:07.220Z,7.80
2023-04-16T18:08:08.910Z,7.20
2023-04-16T18:11:10.644Z,7.55
2023-04-16T18:14:16.589Z,7.63
2023-04-16T18:17:18.155Z,7.25
2023-04-16T18:20:19.843Z,7.60
2023-04-16T18:23:21.601Z,7.30
2023-04-16T18:26:23.344Z,7.20
2023-04-16T18:29:25.620Z,7.72
2023-04-16T18:32:31.039Z,7.00
2023-04-16T18:35:33.173Z,6.57
2023-04-16T18:38:38.236Z,6.93
2023-04-16T18:41:48.231Z,7.22
2023-04-16T18:44:54.041Z,7.18
2023-04-16T18:47:58.799Z,7.20
2023-04-16T18:51:00.457Z,7.60
2023-04-16T18:54:02.201Z,7.13
2023-04-16T18:57:04.048Z,7.30
2023-04-16T19:00:12.350Z,8.35
2023-04-16T19:03:14.113Z,8.23
2023-04-16T19:06:16.045Z,9.23
2023-04-16T19:09:17.801Z,8.75
2023-04-16T19:12:19.827Z,7.88
2023-04-16T19:15:21.827Z,7.50
2023-04-16T19:18:23.376Z,7.07
2023-04-16T19:21:25.838Z,7.28
2023-04-16T19:24:27.409Z,8.30
2023-04-16T19:27:29.593Z,7.53
2023-04-16T19:30:31.191Z,8.77
2023-04-16T19:33:32.829Z,7.90
2023-04-16T19:36:34.502Z,7.32
2023-04-16T19:39:36.461Z,8.73
2023-04-16T19:42:38.023Z,8.07
2023-04-16T19:45:47.445Z,8.18
2023-04-16T19:48:49.107Z,7.82
2023-04-16T19:51:51.039Z,7.63
2023-04-16T19:54:52.619Z,7.53
2023-04-16T19:57:54.220Z,7.10
2023-04-16T20:00:56.419Z,7.13
2023-04-16T20:03:58.083Z,7.63
2023-04-16T20:06:59.694Z,8.35
2023-04-16T20:10:02.765Z,8.20
2023-04-16T20:13:04.901Z,7.85
2023-04-16T20:16:08.354Z,9.43
2023-04-16T20:19:10.455Z,6.97
2023-04-16T20:22:12.300Z,8.17
2023-04-16T20:25:14.473Z,7.97
2023-04-16T20:28:18.045Z,9.70
2023-04-16T20:31:19.712Z,9.20
2023-04-16T20:34:21.281Z,9.07
2023-04-16T20:37:22.916Z,9.48
2023-04-16T20:40:30.393Z,9.23
2023-04-16T20:43:38.562Z,9.57
2023-04-16T20:46:41.944Z,8.02
2023-04-16T20:52:48.358Z,7.57
2023-04-16T20:55:49.942Z,7.88
2023-04-16T20:58:53.096Z,7.90
2023-04-16T21:01:55.002Z,7.43
2023-04-16T21:04:56.991Z,8.60
2023-04-16T21:07:58.558Z,8.43
2023-04-16T21:11:00.182Z,8.48
2023-04-16T21:14:05.956Z,8.77
2023-04-16T21:17:07.531Z,9.07
2023-04-16T21:20:13.482Z,9.55
2023-04-16T21:23:15.481Z,9.43
2023-04-16T21:26:17.249Z,8.90
2023-04-16T21:29:18.805Z,8.75
2023-04-16T21:32:20.906Z,8.95
2023-04-16T21:35:22.602Z,8.93
2023-04-16T21:38:24.275Z,9.45
2023-04-16T21:41:26.513Z,9.80
2023-04-16T21:44:28.114Z,8.88
2023-04-16T21:47:29.719Z,8.80
2023-04-16T21:50:31.412Z,8.95
2023-04-16T21:53:33.625Z,8.27
2023-04-16T21:56:35.250Z,8.77
2023-04-16T21:59:36.931Z,9.30
2023-04-16T22:02:38.655Z,8.95
2023-04-16T22:05:40.336Z,9.15
2023-04-16T22:08:41.971Z,9.75
2023-04-16T22:11:46.524Z,9.43
2023-04-16T22:14:59.707Z,9.00
2023-04-16T22:18:03.551Z,10.18
2023-04-16T22:21:05.256Z,9.18
2023-04-16T22:24:07.042Z,9.38
2023-04-16T22:27:08.841Z,12.25
2023-04-16T22:30:10.943Z,15.52
2023-04-16T22:33:12.643Z,12.73
2023-04-16T22:36:14.374Z,12.68
2023-04-16T22:39:16.089Z,15.23
2023-04-16T22:42:17.715Z,14.35
2023-04-16T22:45:19.334Z,11.63
2023-04-16T22:48:21.106Z,10.80
2023-04-16T22:51:24.310Z,9.98
2023-04-16T22:54:29.861Z,9.65
2023-04-16T22:57:31.448Z,9.32
2023-04-16T23:00:33.043Z,9.40
2023-04-16T23:03:34.684Z,10.88
2023-04-16T23:06:36.342Z,9.77
2023-04-16T23:09:37.944Z,8.32
2023-04-16T23:12:39.579Z,9.35
2023-04-16T23:15:41.180Z,8.85
2023-04-16T23:18:43.034Z,8.77
2023-04-16T23:21:44.731Z,9.40
2023-04-16T23:24:46.847Z,8.70
2023-04-16T23:27:48.456Z,9.02
2023-04-16T23:30:53.358Z,9.45
2023-04-16T23:33:55.055Z,9.40
2023-04-16T23:36:56.597Z,9.23
2023-04-16T23:39:58.273Z,9.75
2023-04-16T23:42:59.862Z,9.98
2023-04-16T23:46:02.343Z,9.85
2023-04-16T23:49:04.562Z,10.00
2023-04-16T23:52:06.231Z,11.10
2023-04-16T23:55:08.305Z,10.18
2023-04-16T23:58:09.911Z,9.45
